createdAt,value
2022-12-03T00:02:07.829Z,16.45
2022-12-03T00:04:35.198Z,16.58
2022-12-03T00:07:02.115Z,15.30
2022-12-03T00:09:29.383Z,12.32
2022-12-03T00:11:56.497Z,13.40
2022-12-03T00:14:23.764Z,13.98
2022-12-03T00:16:50.727Z,13.75
2022-12-03T00:19:19.297Z,17.25
2022-12-03T00:21:46.181Z,14.63
2022-12-03T00:24:13.692Z,13.02
2022-12-03T00:26:40.618Z,12.38
2022-12-03T00:29:07.806Z,13.23
2022-12-03T00:31:34.804Z,13.13
2022-12-03T00:34:02.172Z,12.30
2022-12-03T00:36:30.479Z,8.43
2022-12-03T00:38:57.756Z,8.82
2022-12-03T00:41:24.722Z,12.75
2022-12-03T00:43:52.136Z,14.20
2022-12-03T00:46:21.585Z,13.38
2022-12-03T00:48:48.983Z,14.38
2022-12-03T00:51:15.929Z,15.90
2022-12-03T00:53:44.898Z,13.10
2022-12-03T00:56:11.847Z,11.57
2022-12-03T00:58:39.111Z,11.82
2022-12-03T01:01:06.100Z,15.85
2022-12-03T01:03:33.468Z,11.02
2022-12-03T01:06:00.439Z,10.45
2022-12-03T01:08:27.613Z,13.77
2022-12-03T01:10:56.263Z,12.20
2022-12-03T01:13:23.720Z,11.88
2022-12-03T01:15:50.738Z,12.93
2022-12-03T01:18:18.104Z,11.45
2022-12-03T01:20:45.360Z,10.20
2022-12-03T01:23:12.637Z,10.80
2022-12-03T01:25:39.519Z,11.07
2022-12-03T01:28:08.053Z,8.98
2022-12-03T01:30:54.864Z,9.40
2022-12-03T01:33:22.134Z,12.45
2022-12-03T01:35:49.191Z,12.52
2022-12-03T01:38:16.484Z,13.80
2022-12-03T01:40:43.424Z,16.08
2022-12-03T01:43:12.108Z,15.35
2022-12-03T01:45:39.019Z,13.30
2022-12-03T01:48:06.622Z,10.75
2022-12-03T01:50:33.991Z,12.77
2022-12-03T01:53:03.040Z,12.88
2022-12-03T01:55:30.354Z,10.10
2022-12-03T01:58:00.788Z,10.85
2022-12-03T02:00:30.410Z,15.63
2022-12-03T02:02:59.886Z,14.20
2022-12-03T02:07:55.234Z,13.63
2022-12-03T02:10:27.071Z,18.52
2022-12-03T02:12:57.847Z,15.18
2022-12-03T02:15:25.046Z,17.17
2022-12-03T02:17:53.921Z,13.32
2022-12-03T02:20:21.213Z,14.60
2022-12-03T02:22:57.539Z,16.77
2022-12-03T02:25:31.862Z,18.48
2022-12-03T02:28:00.733Z,20.55
2022-12-03T02:30:30.111Z,15.43
2022-12-03T02:32:58.391Z,16.30
2022-12-03T02:35:27.820Z,17.00
2022-12-03T02:37:59.309Z,21.70
2022-12-03T02:40:31.080Z,28.23
2022-12-03T02:43:01.169Z,15.27
2022-12-03T02:45:31.170Z,19.40
2022-12-03T02:48:00.918Z,21.13
2022-12-03T02:50:31.099Z,16.00
2022-12-03T02:53:00.845Z,15.20
2022-12-03T02:55:36.491Z,16.23
2022-12-03T02:58:05.533Z,21.90
2022-12-03T03:00:33.075Z,18.05
2022-12-03T03:03:01.241Z,12.52
2022-12-03T03:05:28.594Z,13.63
2022-12-03T03:07:58.974Z,13.82
2022-12-03T03:10:26.759Z,13.35
2022-12-03T03:12:56.494Z,10.63
2022-12-03T03:15:25.188Z,12.10
2022-12-03T03:17:52.508Z,11.65
2022-12-03T03:20:20.071Z,9.45
2022-12-03T03:22:47.324Z,11.52
2022-12-03T03:25:18.634Z,9.77
2022-12-03T03:27:45.954Z,9.23
2022-12-03T03:30:14.914Z,12.68
2022-12-03T03:32:42.778Z,8.90
2022-12-03T03:35:11.064Z,10.60
2022-12-03T03:37:39.160Z,10.65
2022-12-03T03:40:07.902Z,8.00
2022-12-03T03:42:36.229Z,9.30
2022-12-03T03:45:03.548Z,10.55
2022-12-03T03:47:32.390Z,12.63
2022-12-03T03:49:59.447Z,10.90
2022-12-03T03:52:26.768Z,12.18
2022-12-03T03:54:53.966Z,8.88
2022-12-03T03:57:21.366Z,8.77
2022-12-03T03:59:48.260Z,10.65
2022-12-03T04:02:18.967Z,7.85
2022-12-03T04:04:48.504Z,7.25
2022-12-03T04:07:16.127Z,8.77
2022-12-03T04:09:43.135Z,8.80
2022-12-03T04:12:30.395Z,9.23
2022-12-03T04:14:57.705Z,8.07
2022-12-03T04:17:25.053Z,16.42
2022-12-03T04:19:53.357Z,10.82
2022-12-03T04:22:38.949Z,10.82
2022-12-03T04:25:25.647Z,10.13
2022-12-03T04:28:11.675Z,9.57
2022-12-03T04:30:38.835Z,10.90
2022-12-03T04:33:24.685Z,14.45
2022-12-03T04:35:53.041Z,9.77
2022-12-03T04:38:20.183Z,11.00
2022-12-03T04:41:03.762Z,12.88
2022-12-03T04:43:32.791Z,8.40
2022-12-03T04:46:00.631Z,10.20
2022-12-03T04:48:27.920Z,9.38
2022-12-03T04:50:56.266Z,7.65
2022-12-03T04:53:23.575Z,9.38
2022-12-03T04:55:50.431Z,8.77
2022-12-03T04:58:17.561Z,15.65
2022-12-03T05:00:44.459Z,9.85
2022-12-03T05:03:11.852Z,9.90
2022-12-03T05:05:38.698Z,10.98
2022-12-03T05:08:08.306Z,8.88
2022-12-03T05:10:35.283Z,10.57
2022-12-03T05:13:02.499Z,14.20
2022-12-03T05:15:29.572Z,10.10
2022-12-03T05:17:56.724Z,10.23
2022-12-03T05:20:41.576Z,8.35
2022-12-03T05:23:11.353Z,14.23
2022-12-03T05:25:38.523Z,15.43
2022-12-03T05:28:06.208Z,14.82
2022-12-03T05:30:33.834Z,9.98
2022-12-03T05:33:01.349Z,10.63
2022-12-03T05:35:28.333Z,8.32
2022-12-03T05:37:55.504Z,8.57
2022-12-03T05:40:24.204Z,9.95
2022-12-03T05:42:54.602Z,12.68
2022-12-03T05:45:22.408Z,14.70
2022-12-03T05:47:49.638Z,15.40
2022-12-03T05:50:16.928Z,18.08
2022-12-03T05:52:44.606Z,15.05
2022-12-03T05:55:11.944Z,18.27
2022-12-03T05:57:40.687Z,13.73
2022-12-03T06:00:12.866Z,11.73
2022-12-03T06:02:40.578Z,14.40
2022-12-03T06:05:08.546Z,17.58
2022-12-03T06:07:35.841Z,12.47
2022-12-03T06:10:03.013Z,9.77
2022-12-03T06:12:30.710Z,14.05
2022-12-03T06:15:01.605Z,12.18
2022-12-03T06:17:28.775Z,15.35
2022-12-03T06:19:55.620Z,25.15
2022-12-03T06:22:22.831Z,14.18
2022-12-03T06:24:50.497Z,18.60
2022-12-03T06:27:18.235Z,14.43
2022-12-03T06:29:45.087Z,17.48
2022-12-03T06:32:13.624Z,12.20
2022-12-03T06:34:40.625Z,11.93
2022-12-03T06:37:07.920Z,18.35
2022-12-03T06:39:35.156Z,19.13
2022-12-03T06:42:02.537Z,20.73
2022-12-03T06:44:29.666Z,17.52
2022-12-03T06:46:56.868Z,17.92
2022-12-03T06:49:25.237Z,15.20
2022-12-03T06:51:52.289Z,13.77
2022-12-03T06:54:19.216Z,14.25
2022-12-03T06:57:02.433Z,11.15
2022-12-03T06:59:29.319Z,15.85
2022-12-03T07:01:56.548Z,17.95
2022-12-03T07:04:25.117Z,15.18
2022-12-03T07:06:52.236Z,14.45
2022-12-03T07:09:19.289Z,17.45
2022-12-03T07:11:46.367Z,17.33
2022-12-03T07:14:13.604Z,16.85
2022-12-03T07:16:43.379Z,16.58
2022-12-03T07:19:11.060Z,18.23
2022-12-03T07:21:39.815Z,17.27
2022-12-03T07:24:07.336Z,16.35
2022-12-03T07:26:35.127Z,20.38
2022-12-03T07:29:02.517Z,19.77
2022-12-03T07:31:29.842Z,23.30
2022-12-03T07:33:56.802Z,16.00
2022-12-03T07:36:23.993Z,19.58
2022-12-03T07:38:52.351Z,20.38
2022-12-03T07:41:19.502Z,15.35
2022-12-03T07:43:46.713Z,12.90
2022-12-03T07:46:13.945Z,14.90
2022-12-03T07:48:40.978Z,19.88
2022-12-03T07:51:10.473Z,19.00
2022-12-03T07:53:39.771Z,17.75
2022-12-03T07:56:08.821Z,14.05
2022-12-03T07:58:35.799Z,13.48
2022-12-03T08:01:03.125Z,13.65
2022-12-03T08:03:30.426Z,14.05
2022-12-03T08:05:57.576Z,14.52
2022-12-03T08:08:24.569Z,14.52
2022-12-03T08:10:51.801Z,14.35
2022-12-03T08:13:20.179Z,19.52
2022-12-03T08:15:47.481Z,15.77
2022-12-03T08:18:16.951Z,14.20
2022-12-03T08:20:46.194Z,17.65
2022-12-03T08:23:16.752Z,16.50
2022-12-03T08:25:45.186Z,14.82
2022-12-03T08:28:15.056Z,21.42
2022-12-03T08:30:44.884Z,17.02
2022-12-03T08:33:24.888Z,13.25
2022-12-03T08:35:52.143Z,14.60
2022-12-03T08:38:22.645Z,17.02
2022-12-03T08:40:51.638Z,14.30
2022-12-03T08:43:21.014Z,19.15
2022-12-03T08:45:51.014Z,14.00
2022-12-03T08:48:32.389Z,15.23
2022-12-03T08:51:04.578Z,14.60
2022-12-03T08:53:36.909Z,14.32
2022-12-03T08:56:09.210Z,18.85
2022-12-03T08:58:41.313Z,17.65
2022-12-03T09:01:30.638Z,18.23
2022-12-03T09:06:42.715Z,16.27
2022-12-03T09:09:09.583Z,15.80
2022-12-03T09:11:36.900Z,19.27
2022-12-03T09:14:04.478Z,16.65
2022-12-03T09:16:33.057Z,19.38
2022-12-03T09:19:00.100Z,20.88
2022-12-03T09:21:27.277Z,19.02
2022-12-03T09:23:54.217Z,26.38
2022-12-03T09:26:21.386Z,23.05
2022-12-03T09:28:48.509Z,18.48
2022-12-03T09:31:15.935Z,20.02
2022-12-03T09:33:44.604Z,24.17
2022-12-03T09:36:11.844Z,18.45
2022-12-03T09:38:41.934Z,13.10
2022-12-03T09:41:13.608Z,16.13
2022-12-03T09:44:03.274Z,17.42
2022-12-03T09:46:29.305Z,15.35
2022-12-03T09:48:57.802Z,15.82
2022-12-03T09:51:31.511Z,22.50
2022-12-03T09:53:58.851Z,17.58
2022-12-03T09:56:26.103Z,23.65
2022-12-03T09:58:53.187Z,14.90
2022-12-03T10:01:20.521Z,14.52
2022-12-03T10:03:50.470Z,13.95
2022-12-03T10:06:21.193Z,14.82
2022-12-03T10:08:50.121Z,21.45
2022-12-03T10:11:19.072Z,22.33
2022-12-03T10:13:51.687Z,18.27
2022-12-03T10:16:20.949Z,15.50
2022-12-03T10:18:51.136Z,15.13
2022-12-03T10:21:23.834Z,17.20
2022-12-03T10:24:21.037Z,17.67
2022-12-03T10:26:49.801Z,15.60
2022-12-03T10:29:18.847Z,14.10
2022-12-03T10:31:46.660Z,16.55
2022-12-03T10:34:13.688Z,22.25
2022-12-03T10:36:42.293Z,18.33
2022-12-03T10:39:12.641Z,21.58
2022-12-03T10:41:41.370Z,29.85
2022-12-03T10:44:15.537Z,18.73
2022-12-03T10:46:44.035Z,16.42
2022-12-03T10:49:16.256Z,12.93
2022-12-03T10:51:46.410Z,16.30
2022-12-03T10:54:17.694Z,14.38
2022-12-03T10:56:46.015Z,18.45
2022-12-03T10:59:18.698Z,16.10
2022-12-03T11:01:46.132Z,14.07
2022-12-03T11:04:21.949Z,22.42
2022-12-03T11:06:50.948Z,26.08
2022-12-03T11:09:22.407Z,21.63
2022-12-03T11:11:50.260Z,17.05
2022-12-03T11:15:06.239Z,13.85
2022-12-03T11:17:44.730Z,14.45
2022-12-03T11:20:37.565Z,19.43
2022-12-03T11:23:10.541Z,10.02
2022-12-03T11:25:47.237Z,16.38
2022-12-03T11:28:53.160Z,13.60
2022-12-03T11:31:38.289Z,23.27
2022-12-03T11:34:48.540Z,15.07
2022-12-03T11:37:26.032Z,17.23
2022-12-03T11:40:36.180Z,22.73
2022-12-03T11:43:09.978Z,13.70
2022-12-03T11:45:38.331Z,24.55
2022-12-03T11:48:12.563Z,15.43
2022-12-03T11:50:43.147Z,12.95
2022-12-03T11:53:15.931Z,12.00
2022-12-03T11:55:47.503Z,11.20
2022-12-03T11:58:25.784Z,15.07
2022-12-03T12:00:54.740Z,14.90
2022-12-03T12:03:24.443Z,18.70
2022-12-03T12:06:03.546Z,10.20
2022-12-03T12:08:30.966Z,10.70
2022-12-03T12:10:58.401Z,11.25
2022-12-03T12:13:48.114Z,13.65
2022-12-03T12:16:37.215Z,15.32
2022-12-03T12:21:50.756Z,12.57
2022-12-03T12:24:32.182Z,12.02
2022-12-03T12:27:01.607Z,13.20
2022-12-03T12:29:29.935Z,10.50
2022-12-03T12:32:06.735Z,14.00
2022-12-03T12:34:34.994Z,12.90
2022-12-03T12:37:03.041Z,19.77
2022-12-03T12:39:31.310Z,16.00
2022-12-03T12:41:59.321Z,16.55
2022-12-03T12:44:28.732Z,13.50
2022-12-03T12:47:12.482Z,19.08
2022-12-03T12:49:39.398Z,24.20
2022-12-03T12:52:14.234Z,21.15
2022-12-03T12:54:43.875Z,15.30
2022-12-03T12:57:13.823Z,13.70
2022-12-03T12:59:42.267Z,16.15
2022-12-03T13:02:37.423Z,15.25
2022-12-03T13:05:05.112Z,11.60
2022-12-03T13:07:32.460Z,14.07
2022-12-03T13:10:13.787Z,17.17
2022-12-03T13:12:41.045Z,13.88
2022-12-03T13:15:35.679Z,22.85
2022-12-03T13:18:20.179Z,12.25
2022-12-03T13:20:47.197Z,10.85
2022-12-03T13:23:26.471Z,31.42
2022-12-03T13:26:09.495Z,22.70
2022-12-03T13:28:41.765Z,18.05
2022-12-03T13:31:28.256Z,13.25
2022-12-03T13:33:56.771Z,10.07
2022-12-03T13:36:34.853Z,15.25
2022-12-03T13:39:09.514Z,10.40
2022-12-03T13:41:54.913Z,13.32
2022-12-03T13:44:22.339Z,12.27
2022-12-03T13:46:50.571Z,13.13
2022-12-03T13:49:21.165Z,11.07
2022-12-03T13:51:51.200Z,7.72
2022-12-03T13:54:23.881Z,13.38
2022-12-03T13:56:50.970Z,8.52
2022-12-03T13:59:22.985Z,17.00
2022-12-03T14:01:54.253Z,16.05
2022-12-03T14:04:21.621Z,19.65
2022-12-03T14:06:48.512Z,16.85
2022-12-03T14:09:15.817Z,18.75
2022-12-03T14:12:01.068Z,20.60
2022-12-03T14:14:28.310Z,13.02
2022-12-03T14:16:59.874Z,17.58
2022-12-03T14:19:27.460Z,23.10
2022-12-03T14:21:54.389Z,17.55
2022-12-03T14:24:21.889Z,15.90
2022-12-03T14:26:48.955Z,18.10
2022-12-03T14:29:16.264Z,18.20
2022-12-03T14:31:43.227Z,24.58
2022-12-03T14:34:11.998Z,19.88
2022-12-03T14:36:38.897Z,22.83
2022-12-03T14:39:06.096Z,21.17
2022-12-03T14:41:51.370Z,16.33
2022-12-03T14:44:21.784Z,24.25
2022-12-03T14:46:51.577Z,29.08
2022-12-03T14:49:22.603Z,24.25
2022-12-03T14:51:49.595Z,22.20
2022-12-03T14:54:16.896Z,24.33
2022-12-03T14:56:43.863Z,17.48
2022-12-03T14:59:13.495Z,24.23
2022-12-03T15:01:40.564Z,11.88
2022-12-03T15:04:10.120Z,25.27
2022-12-03T15:06:38.410Z,11.75
2022-12-03T15:09:05.753Z,24.85
2022-12-03T15:11:32.752Z,17.50
2022-12-03T15:14:00.216Z,13.07
2022-12-03T15:16:27.166Z,21.58
2022-12-03T15:18:58.011Z,14.57
2022-12-03T15:21:25.152Z,20.67
2022-12-03T15:23:53.743Z,24.92
2022-12-03T15:26:20.572Z,23.92
2022-12-03T15:28:48.557Z,32.47
2022-12-03T15:31:16.673Z,24.27
2022-12-03T15:33:44.176Z,28.37
2022-12-03T15:36:11.119Z,28.75
2022-12-03T15:38:38.352Z,37.30
2022-12-03T15:41:24.040Z,23.38
2022-12-03T15:43:52.684Z,30.00
2022-12-03T15:46:20.228Z,64.45
2022-12-03T15:48:47.778Z,71.78
2022-12-03T15:51:14.821Z,83.22
2022-12-03T15:53:43.988Z,56.85
2022-12-03T15:56:12.278Z,73.45
2022-12-03T15:58:40.493Z,65.55
2022-12-03T16:01:08.345Z,52.38
2022-12-03T16:03:36.474Z,64.70
2022-12-03T16:06:03.650Z,58.17
2022-12-03T16:08:30.957Z,61.90
2022-12-03T16:10:57.794Z,55.33
2022-12-03T16:13:26.597Z,57.50
2022-12-03T16:15:53.709Z,56.38
2022-12-03T16:18:20.979Z,72.13
2022-12-03T16:20:47.889Z,65.57
2022-12-03T16:23:15.049Z,65.18
2022-12-03T16:25:41.883Z,76.95
2022-12-03T16:28:09.131Z,81.97
2022-12-03T16:30:37.549Z,77.10
2022-12-03T16:33:04.804Z,70.80
2022-12-03T16:35:31.768Z,67.95
2022-12-03T16:37:59.028Z,69.20
2022-12-03T16:40:25.926Z,66.47
2022-12-03T16:42:53.058Z,90.13
2022-12-03T16:45:33.495Z,96.15
2022-12-03T16:48:02.773Z,124.78
2022-12-03T16:50:30.558Z,108.05
2022-12-03T16:52:57.892Z,102.13
2022-12-03T16:55:25.124Z,100.38
2022-12-03T16:57:52.346Z,90.95
2022-12-03T17:00:21.794Z,74.75
2022-12-03T17:02:49.299Z,78.85
2022-12-03T17:05:17.982Z,94.32
2022-12-03T17:07:45.199Z,93.53
2022-12-03T17:10:21.206Z,53.72
2022-12-03T17:15:42.769Z,60.88
2022-12-03T17:18:10.229Z,57.35
2022-12-03T17:20:38.615Z,48.83
2022-12-03T17:23:08.607Z,52.45
2022-12-03T17:25:35.742Z,63.38
2022-12-03T17:28:10.605Z,71.15
2022-12-03T17:30:39.623Z,54.72
2022-12-03T17:33:06.798Z,48.13
2022-12-03T17:35:33.805Z,31.27
2022-12-03T17:38:02.632Z,22.02
2022-12-03T17:40:29.508Z,21.17
2022-12-03T17:42:56.730Z,30.48
2022-12-03T17:45:26.442Z,28.33
2022-12-03T17:47:56.402Z,26.52
2022-12-03T17:50:23.286Z,22.58
2022-12-03T17:52:50.454Z,24.42
2022-12-03T17:55:29.756Z,31.75
2022-12-03T17:58:04.081Z,27.10
2022-12-03T18:00:33.884Z,24.67
2022-12-03T18:03:01.232Z,25.75
2022-12-03T18:05:30.158Z,23.70
2022-12-03T18:10:27.550Z,22.02
2022-12-03T18:12:59.831Z,26.33
2022-12-03T18:15:28.633Z,33.75
2022-12-03T18:17:55.809Z,42.53
2022-12-03T18:20:22.642Z,26.85
2022-12-03T18:22:50.164Z,21.92
2022-12-03T18:25:18.025Z,27.70
2022-12-03T18:27:48.957Z,33.85
2022-12-03T18:30:16.175Z,33.15
2022-12-03T18:32:43.442Z,31.30
2022-12-03T18:35:10.352Z,74.53
2022-12-03T18:37:37.580Z,39.92
2022-12-03T18:40:12.807Z,28.63
2022-12-03T18:42:40.533Z,25.88
2022-12-03T18:45:13.165Z,24.35
2022-12-03T18:47:46.350Z,24.63
2022-12-03T18:50:16.310Z,29.40
2022-12-03T18:52:46.000Z,34.38
2022-12-03T18:55:18.311Z,31.27
2022-12-03T18:57:45.735Z,33.17
2022-12-03T19:00:19.243Z,29.05
2022-12-03T19:05:33.784Z,48.80
2022-12-03T19:08:01.597Z,40.08
2022-12-03T19:10:31.107Z,44.75
2022-12-03T19:12:58.571Z,43.80
2022-12-03T19:15:28.086Z,39.78
2022-12-03T19:17:55.248Z,44.75
2022-12-03T19:20:26.307Z,34.75
2022-12-03T19:22:53.467Z,44.17
2022-12-03T19:25:20.462Z,42.25
2022-12-03T19:27:50.100Z,35.67
2022-12-03T19:30:17.563Z,35.92
2022-12-03T19:32:46.461Z,39.40
2022-12-03T19:35:13.419Z,32.30
2022-12-03T19:37:40.623Z,25.02
2022-12-03T19:40:12.572Z,27.35
2022-12-03T19:42:40.328Z,25.75
2022-12-03T19:45:09.743Z,29.02
2022-12-03T19:47:40.184Z,23.85
2022-12-03T19:50:12.912Z,26.58
2022-12-03T19:52:47.202Z,22.98
2022-12-03T19:55:18.772Z,19.45
2022-12-03T19:57:46.831Z,19.75
2022-12-03T20:00:17.230Z,21.45
2022-12-03T20:02:47.887Z,19.05
2022-12-03T20:05:22.609Z,25.17
2022-12-03T20:07:54.714Z,16.50
2022-12-03T20:10:23.037Z,19.88
2022-12-03T20:12:52.153Z,20.00
2022-12-03T20:15:19.039Z,29.60
2022-12-03T20:17:49.410Z,40.35
2022-12-03T20:20:16.449Z,32.40
2022-12-03T20:22:46.338Z,33.22
2022-12-03T20:25:13.539Z,25.90
2022-12-03T20:27:40.703Z,37.08
2022-12-03T20:30:08.701Z,41.33
2022-12-03T20:32:39.358Z,32.53
2022-12-03T20:35:11.703Z,30.23
2022-12-03T20:37:39.009Z,27.23
2022-12-03T20:40:08.846Z,23.95
2022-12-03T20:42:36.144Z,24.67
2022-12-03T20:45:03.269Z,24.13
2022-12-03T20:47:30.513Z,25.35
2022-12-03T20:49:57.595Z,30.10
2022-12-03T20:52:24.952Z,24.10
2022-12-03T20:54:51.892Z,25.48
2022-12-03T20:57:20.484Z,28.02
2022-12-03T20:59:47.358Z,36.20
2022-12-03T21:02:14.694Z,24.75
2022-12-03T21:04:41.807Z,21.98
2022-12-03T21:07:09.056Z,24.23
2022-12-03T21:09:35.946Z,19.17
2022-12-03T21:12:03.269Z,20.85
2022-12-03T21:14:32.172Z,20.83
2022-12-03T21:17:08.307Z,22.38
2022-12-03T21:19:35.684Z,19.65
2022-12-03T21:22:02.872Z,23.98
2022-12-03T21:24:30.026Z,22.48
2022-12-03T21:26:57.255Z,23.90
2022-12-03T21:29:24.112Z,23.98
2022-12-03T21:31:52.652Z,24.38
2022-12-03T21:34:22.543Z,25.75
2022-12-03T21:36:49.700Z,21.45
2022-12-03T21:39:16.654Z,22.55
2022-12-03T21:42:18.774Z,17.92
2022-12-03T21:44:30.981Z,26.50
2022-12-03T21:47:09.509Z,21.85
2022-12-03T21:49:40.825Z,19.85
2022-12-03T21:52:07.949Z,21.42
2022-12-03T21:54:35.021Z,21.52
2022-12-03T21:57:02.127Z,17.27
2022-12-03T21:59:31.801Z,17.92
2022-12-03T22:02:03.206Z,17.35
2022-12-03T22:04:32.945Z,17.55
2022-12-03T22:07:00.187Z,14.65
2022-12-03T22:09:27.188Z,18.45
2022-12-03T22:11:56.887Z,45.00
2022-12-03T22:14:24.259Z,50.25
2022-12-03T22:16:54.291Z,39.20
2022-12-03T22:19:23.785Z,55.63
2022-12-03T22:21:51.174Z,48.92
2022-12-03T22:24:19.397Z,43.85
2022-12-03T22:26:47.450Z,41.33
2022-12-03T22:29:15.932Z,25.73
2022-12-03T22:31:44.529Z,20.42
2022-12-03T22:34:11.462Z,16.80
2022-12-03T22:36:43.322Z,17.23
2022-12-03T22:39:13.429Z,20.10
2022-12-03T22:41:43.805Z,20.30
2022-12-03T22:44:10.955Z,15.73
2022-12-03T22:46:38.433Z,26.40
2022-12-03T22:49:07.631Z,31.73
2022-12-03T22:51:37.352Z,34.35
2022-12-03T22:54:06.363Z,18.65
2022-12-03T22:56:33.677Z,20.05
2022-12-03T22:59:00.778Z,34.83
2022-12-03T23:01:30.677Z,29.02
2022-12-03T23:03:57.852Z,17.17
2022-12-03T23:06:25.294Z,21.58
2022-12-03T23:08:52.446Z,14.20
2022-12-03T23:11:21.369Z,15.73
2022-12-03T23:13:48.505Z,16.75
2022-12-03T23:16:20.659Z,15.85
2022-12-03T23:18:47.595Z,17.40
2022-12-03T23:21:15.977Z,22.15
2022-12-03T23:23:43.927Z,28.48
2022-12-03T23:26:13.212Z,21.60
2022-12-03T23:28:43.220Z,17.85
2022-12-03T23:31:17.039Z,17.08
2022-12-03T23:33:44.640Z,18.20
2022-12-03T23:36:12.504Z,15.68
2022-12-03T23:38:39.374Z,13.57
2022-12-03T23:41:07.768Z,14.70
2022-12-03T23:43:34.923Z,13.10
2022-12-03T23:46:05.012Z,19.45
2022-12-03T23:48:32.035Z,22.08
2022-12-03T23:50:59.384Z,15.77
2022-12-03T23:53:26.528Z,19.73
2022-12-03T23:55:53.673Z,18.65
2022-12-03T23:58:20.583Z,17.00
